Airfield :
LOGIN :

Register | Disclaimer

   EN    FR    IT 

 










Legend :    VFR   Marginal VFR   IFR   Intensive IFR   Very Intensive IFR
Visi :
Ceiling :
>= 8 km
>= 3000ft
5 to 8 km
1000 to 3000 ft
1500m to 5 km
500 to 1000 ft
800 to 1500m
200 to 500 ft
< 800m
< 200 ft
Symbols :   Thunderstorms  Fog  Heavy snow  Heavy precipitations  Wind > 20 kt
SIGMETs :     Misc.  Thunderstorms  Icing  Turbulence  Mountain Waves  Volcanic Ashes







- Airport Elevation : 72 ft
- IATA code : UDE


EHVK - Volkel Airbase

CURRENT METAR :
  • 190025Z AUTO 06004KT 9999 NCD 18/16 Q1009 BLU

EXPIRED METARs :
  • 182355Z AUTO 07005KT 9999 NCD 18/16 Q1009 BLU
  • 182325Z AUTO 07003KT 9999 SCT120 18/16 Q1010 BLU
  • 182255Z AUTO 05004KT 9999 BKN140 18/16 Q1010 BLU
  • 182225Z AUTO 01003KT 350V050 9999 OVC140 19/15 Q1010 BLU
  • 182155Z AUTO 04003KT 9999 OVC150 19/16 Q1010 BLU

TAF TAF EHVK
Valid from the 18 at 21:00 until the 19 at 09:00 UTC


182027Z 1821/1909 05008KT CAVOK
BECMG 1822/1901 11004KT
BECMG 1905/1908 21007KT
No reported NOTAMs for that airfield.



MET'MAP, your aeronautical weather chart ! - Copyright ORBIFLY December 2007 - Disclaimer

ORBIFLY MET'MAP TEAM :

Programming & Development : Alexandra Zaïnal
Concept & Development : Baudouin d'Aumeries
Co-Development & Prog : Marc-Olivier Méhu
Technical & hardware support : Manuel Goepfert

Contact : metmap@orbifly.com




SOURCES & CREDITS :

   NOAA